sensor_id;sensor_type;location;lat;lon;timestamp;pressure;altitude;pressure_sealevel;temperature;humidity
38620;BME280;24376;51.986;4.662;2022-11-06T00:01:07;105602.69;;;10.65;100.00
38620;BME280;24376;51.986;4.662;2022-11-06T00:03:33;105533.91;;;10.68;100.00
38620;BME280;24376;51.986;4.662;2022-11-06T00:05:58;105490.09;;;10.66;100.00
38620;BME280;24376;51.986;4.662;2022-11-06T00:08:42;105561.06;;;10.68;100.00
38620;BME280;24376;51.986;4.662;2022-11-06T00:11:12;105504.78;;;10.73;100.00
38620;BME280;24376;51.986;4.662;2022-11-06T00:13:37;105512.03;;;10.67;100.00
38620;BME280;24376;51.986;4.662;2022-11-06T00:16:07;105458.03;;;10.69;100.00
38620;BME280;24376;51.986;4.662;2022-11-06T00:18:32;105491.34;;;10.70;100.00
38620;BME280;24376;51.986;4.662;2022-11-06T00:20:58;105460.19;;;10.64;100.00
38620;BME280;24376;51.986;4.662;2022-11-06T00:23:23;105455.09;;;10.66;100.00
38620;BME280;24376;51.986;4.662;2022-11-06T00:25:49;105530.50;;;10.60;100.00
38620;BME280;24376;51.986;4.662;2022-11-06T00:28:19;105523.56;;;10.60;100.00
38620;BME280;24376;51.986;4.662;2022-11-06T00:30:44;105544.25;;;10.57;100.00
38620;BME280;24376;51.986;4.662;2022-11-06T00:33:10;105597.88;;;10.61;100.00
38620;BME280;24376;51.986;4.662;2022-11-06T00:35:39;105628.59;;;10.62;100.00
38620;BME280;24376;51.986;4.662;2022-11-06T00:38:04;105638.63;;;10.66;100.00
38620;BME280;24376;51.986;4.662;2022-11-06T00:40:29;105605.16;;;10.72;100.00
38620;BME280;24376;51.986;4.662;2022-11-06T00:42:55;105609.66;;;10.73;100.00
38620;BME280;24376;51.986;4.662;2022-11-06T00:45:20;105561.69;;;10.74;100.00
38620;BME280;24376;51.986;4.662;2022-11-06T00:47:45;105537.75;;;10.71;100.00
38620;BME280;24376;51.986;4.662;2022-11-06T00:50:11;105552.72;;;10.72;100.00
38620;BME280;24376;51.986;4.662;2022-11-06T00:52:36;105627.53;;;10.77;100.00
38620;BME280;24376;51.986;4.662;2022-11-06T00:55:01;105562.59;;;10.75;100.00
38620;BME280;24376;51.986;4.662;2022-11-06T00:57:26;105623.69;;;10.74;100.00
38620;BME280;24376;51.986;4.662;2022-11-06T00:59:51;105631.56;;;10.74;100.00
38620;BME280;24376;51.986;4.662;2022-11-06T01:02:16;105677.06;;;10.74;100.00
38620;BME280;24376;51.986;4.662;2022-11-06T01:04:43;105675.03;;;10.72;100.00
38620;BME280;24376;51.986;4.662;2022-11-06T01:07:08;105707.59;;;10.74;100.00
38620;BME280;24376;51.986;4.662;2022-11-06T01:09:33;105709.09;;;10.72;100.00
38620;BME280;24376;51.986;4.662;2022-11-06T01:11:59;105744.13;;;10.72;100.00
38620;BME280;24376;51.986;4.662;2022-11-06T01:14:25;105769.59;;;10.73;100.00
38620;BME280;24376;51.986;4.662;2022-11-06T01:16:50;105782.72;;;10.73;100.00
38620;BME280;24376;51.986;4.662;2022-11-06T01:19:16;105788.69;;;10.72;100.00
38620;BME280;24376;51.986;4.662;2022-11-06T01:21:42;105765.09;;;10.72;100.00
38620;BME280;24376;51.986;4.662;2022-11-06T01:24:15;105766.78;;;10.72;100.00
38620;BME280;24376;51.986;4.662;2022-11-06T01:26:40;105786.56;;;10.77;100.00
38620;BME280;24376;51.986;4.662;2022-11-06T01:29:06;105804.63;;;10.74;100.00
38620;BME280;24376;51.986;4.662;2022-11-06T01:31:32;105807.81;;;10.71;100.00
38620;BME280;24376;51.986;4.662;2022-11-06T01:33:58;105836.09;;;10.74;100.00
38620;BME280;24376;51.986;4.662;2022-11-06T01:36:24;105839.63;;;10.74;100.00
38620;BME280;24376;51.986;4.662;2022-11-06T01:38:50;105837.44;;;10.70;100.00
38620;BME280;24376;51.986;4.662;2022-11-06T01:41:17;105843.94;;;10.74;100.00
38620;BME280;24376;51.986;4.662;2022-11-06T01:43:44;105848.28;;;10.73;100.00
38620;BME280;24376;51.986;4.662;2022-11-06T01:46:10;105849.78;;;10.71;100.00
38620;BME280;24376;51.986;4.662;2022-11-06T01:48:35;105821.44;;;10.76;100.00
38620;BME280;24376;51.986;4.662;2022-11-06T01:51:03;105799.53;;;10.75;100.00
38620;BME280;24376;51.986;4.662;2022-11-06T01:53:28;105820.34;;;10.74;100.00
38620;BME280;24376;51.986;4.662;2022-11-06T01:55:55;105860.59;;;10.74;100.00
38620;BME280;24376;51.986;4.662;2022-11-06T01:58:22;105962.38;;;10.70;100.00
38620;BME280;24376;51.986;4.662;2022-11-06T02:00:49;106046.97;;;10.60;100.00
38620;BME280;24376;51.986;4.662;2022-11-06T02:03:14;106148.91;;;10.57;100.00
38620;BME280;24376;51.986;4.662;2022-11-06T02:05:40;106237.69;;;10.54;100.00
38620;BME280;24376;51.986;4.662;2022-11-06T02:08:07;106290.47;;;10.57;100.00
38620;BME280;24376;51.986;4.662;2022-11-06T02:10:32;106324.97;;;10.53;100.00
38620;BME280;24376;51.986;4.662;2022-11-06T02:13:02;106353.97;;;10.54;100.00
38620;BME280;24376;51.986;4.662;2022-11-06T02:20:34;106370.59;;;10.62;100.00
38620;BME280;24376;51.986;4.662;2022-11-06T02:23:07;106394.59;;;10.58;100.00
38620;BME280;24376;51.986;4.662;2022-11-06T02:25:51;106463.53;;;10.57;100.00
38620;BME280;24376;51.986;4.662;2022-11-06T02:28:26;106525.50;;;10.56;100.00
38620;BME280;24376;51.986;4.662;2022-11-06T02:30:54;106568.03;;;10.54;100.00
38620;BME280;24376;51.986;4.662;2022-11-06T02:33:42;106548.78;;;10.46;100.00
38620;BME280;24376;51.986;4.662;2022-11-06T02:36:08;106587.91;;;10.52;100.00
38620;BME280;24376;51.986;4.662;2022-11-06T02:38:46;106562.06;;;10.48;100.00
38620;BME280;24376;51.986;4.662;2022-11-06T02:41:15;106537.50;;;10.54;100.00
38620;BME280;24376;51.986;4.662;2022-11-06T02:43:43;106481.09;;;10.58;100.00
38620;BME280;24376;51.986;4.662;2022-11-06T02:46:44;106428.44;;;10.63;100.00
38620;BME280;24376;51.986;4.662;2022-11-06T02:49:08;106378.78;;;10.65;100.00
38620;BME280;24376;51.986;4.662;2022-11-06T02:51:37;106310.59;;;10.65;100.00
38620;BME280;24376;51.986;4.662;2022-11-06T02:54:05;106270.50;;;10.66;100.00
38620;BME280;24376;51.986;4.662;2022-11-06T02:56:35;106290.00;;;10.68;100.00
38620;BME280;24376;51.986;4.662;2022-11-06T02:59:02;106352.25;;;10.62;100.00
38620;BME280;24376;51.986;4.662;2022-11-06T03:01:54;106412.19;;;10.59;100.00
38620;BME280;24376;51.986;4.662;2022-11-06T03:04:32;106471.22;;;10.55;100.00
38620;BME280;24376;51.986;4.662;2022-11-06T03:07:03;106505.31;;;10.55;100.00
38620;BME280;24376;51.986;4.662;2022-11-06T03:09:30;106494.75;;;10.62;100.00
38620;BME280;24376;51.986;4.662;2022-11-06T03:11:58;106470.41;;;10.63;100.00
38620;BME280;24376;51.986;4.662;2022-11-06T03:14:33;106435.91;;;10.68;100.00
38620;BME280;24376;51.986;4.662;2022-11-06T03:19:29;106317.16;;;10.69;100.00
38620;BME280;24376;51.986;4.662;2022-11-06T03:22:00;106252.09;;;10.73;100.00
38620;BME280;24376;51.986;4.662;2022-11-06T03:24:33;106207.53;;;10.73;100.00
38620;BME280;24376;51.986;4.662;2022-11-06T03:27:00;106163.25;;;10.76;100.00
38620;BME280;24376;51.986;4.662;2022-11-06T03:29:31;106144.59;;;10.73;100.00
38620;BME280;24376;51.986;4.662;2022-11-06T03:32:02;106148.13;;;10.74;100.00
38620;BME280;24376;51.986;4.662;2022-11-06T03:34:31;106155.81;;;10.72;100.00
38620;BME280;24376;51.986;4.662;2022-11-06T03:37:04;106184.50;;;10.71;100.00
38620;BME280;24376;51.986;4.662;2022-11-06T03:39:32;106255.47;;;10.72;100.00
38620;BME280;24376;51.986;4.662;2022-11-06T03:42:01;106296.00;;;10.67;100.00
38620;BME280;24376;51.986;4.662;2022-11-06T03:44:28;106349.94;;;10.65;100.00
38620;BME280;24376;51.986;4.662;2022-11-06T03:46:57;106371.09;;;10.66;100.00
38620;BME280;24376;51.986;4.662;2022-11-06T03:49:29;106388.34;;;10.64;100.00
38620;BME280;24376;51.986;4.662;2022-11-06T03:52:01;106384.72;;;10.71;100.00
38620;BME280;24376;51.986;4.662;2022-11-06T03:54:31;106360.97;;;10.70;100.00
38620;BME280;24376;51.986;4.662;2022-11-06T03:57:03;106344.81;;;10.74;100.00
38620;BME280;24376;51.986;4.662;2022-11-06T03:59:31;106293.63;;;10.77;100.00
38620;BME280;24376;51.986;4.662;2022-11-06T04:01:57;106265.31;;;10.82;100.00
38620;BME280;24376;51.986;4.662;2022-11-06T04:04:34;106210.22;;;10.82;100.00
38620;BME280;24376;51.986;4.662;2022-11-06T04:07:07;106174.78;;;10.85;100.00
38620;BME280;24376;51.986;4.662;2022-11-06T04:09:34;106133.41;;;10.83;100.00
38620;BME280;24376;51.986;4.662;2022-11-06T04:12:21;106092.72;;;10.86;100.00
38620;BME280;24376;51.986;4.662;2022-11-06T04:15:08;106056.91;;;10.87;100.00
38620;BME280;24376;51.986;4.662;2022-11-06T04:17:34;106017.72;;;10.88;100.00
38620;BME280;24376;51.986;4.662;2022-11-06T04:20:01;105993.81;;;10.85;100.00
38620;BME280;24376;51.986;4.662;2022-11-06T04:22:33;105989.00;;;10.81;100.00
38620;BME280;24376;51.986;4.662;2022-11-06T04:28:56;105977.28;;;10.86;100.00
38620;BME280;24376;51.986;4.662;2022-11-06T04:31:36;105962.63;;;10.88;100.00
38620;BME280;24376;51.986;4.662;2022-11-06T04:33:59;105950.44;;;10.89;100.00
38620;BME280;24376;51.986;4.662;2022-11-06T04:36:35;105941.66;;;10.88;100.00
38620;BME280;24376;51.986;4.662;2022-11-06T04:39:04;105947.69;;;10.87;100.00
38620;BME280;24376;51.986;4.662;2022-11-06T04:41:32;105937.19;;;10.87;100.00
38620;BME280;24376;51.986;4.662;2022-11-06T04:46:26;105915.44;;;10.88;100.00
38620;BME280;24376;51.986;4.662;2022-11-06T04:48:53;105921.78;;;10.90;100.00
38620;BME280;24376;51.986;4.662;2022-11-06T04:51:20;105913.72;;;10.89;100.00
38620;BME280;24376;51.986;4.662;2022-11-06T04:53:46;105914.34;;;10.86;100.00
38620;BME280;24376;51.986;4.662;2022-11-06T04:56:19;105926.69;;;10.87;100.00
38620;BME280;24376;51.986;4.662;2022-11-06T04:58:44;105955.53;;;10.87;100.00
38620;BME280;24376;51.986;4.662;2022-11-06T05:01:10;105983.63;;;10.88;100.00
38620;BME280;24376;51.986;4.662;2022-11-06T05:03:35;106038.41;;;10.85;100.00
38620;BME280;24376;51.986;4.662;2022-11-06T05:06:00;106141.47;;;10.84;100.00
38620;BME280;24376;51.986;4.662;2022-11-06T05:08:25;106195.81;;;10.78;100.00
38620;BME280;24376;51.986;4.662;2022-11-06T05:10:50;106245.94;;;10.73;100.00
38620;BME280;24376;51.986;4.662;2022-11-06T05:13:16;106327.81;;;10.70;100.00
38620;BME280;24376;51.986;4.662;2022-11-06T05:15:41;106384.97;;;10.65;100.00
38620;BME280;24376;51.986;4.662;2022-11-06T05:18:06;106445.09;;;10.64;100.00
38620;BME280;24376;51.986;4.662;2022-11-06T05:20:31;106485.75;;;10.60;100.00
38620;BME280;24376;51.986;4.662;2022-11-06T05:22:57;106561.63;;;10.59;100.00
38620;BME280;24376;51.986;4.662;2022-11-06T05:25:22;106617.78;;;10.61;100.00
38620;BME280;24376;51.986;4.662;2022-11-06T05:27:48;106642.16;;;10.60;100.00
38620;BME280;24376;51.986;4.662;2022-11-06T05:30:13;106700.78;;;10.60;100.00
38620;BME280;24376;51.986;4.662;2022-11-06T05:32:38;106708.47;;;10.59;100.00
38620;BME280;24376;51.986;4.662;2022-11-06T05:35:03;106754.16;;;10.61;100.00
38620;BME280;24376;51.986;4.662;2022-11-06T05:37:28;106774.03;;;10.59;100.00
38620;BME280;24376;51.986;4.662;2022-11-06T05:39:54;106793.13;;;10.58;100.00
38620;BME280;24376;51.986;4.662;2022-11-06T05:42:19;106801.19;;;10.52;100.00
38620;BME280;24376;51.986;4.662;2022-11-06T05:44:45;106868.78;;;10.55;100.00
38620;BME280;24376;51.986;4.662;2022-11-06T05:47:10;106853.06;;;10.55;100.00
38620;BME280;24376;51.986;4.662;2022-11-06T05:49:35;106868.78;;;10.55;100.00
38620;BME280;24376;51.986;4.662;2022-11-06T05:52:01;106871.06;;;10.52;100.00
38620;BME280;24376;51.986;4.662;2022-11-06T05:54:26;106902.13;;;10.49;100.00
38620;BME280;24376;51.986;4.662;2022-11-06T05:56:51;106922.91;;;10.47;100.00
38620;BME280;24376;51.986;4.662;2022-11-06T05:59:16;106924.44;;;10.45;100.00
38620;BME280;24376;51.986;4.662;2022-11-06T06:01:41;106952.34;;;10.45;100.00
38620;BME280;24376;51.986;4.662;2022-11-06T06:04:07;106957.56;;;10.45;100.00
38620;BME280;24376;51.986;4.662;2022-11-06T06:06:32;107012.41;;;10.43;100.00
38620;BME280;24376;51.986;4.662;2022-11-06T06:08:57;107044.09;;;10.45;100.00
38620;BME280;24376;51.986;4.662;2022-11-06T06:11:22;107066.94;;;10.46;100.00
38620;BME280;24376;51.986;4.662;2022-11-06T06:13:48;107048.94;;;10.42;100.00
38620;BME280;24376;51.986;4.662;2022-11-06T06:16:13;107062.22;;;10.43;100.00
38620;BME280;24376;51.986;4.662;2022-11-06T06:18:38;107078.19;;;10.45;100.00
38620;BME280;24376;51.986;4.662;2022-11-06T06:21:03;107080.41;;;10.49;100.00
38620;BME280;24376;51.986;4.662;2022-11-06T06:23:29;107100.69;;;10.50;100.00
38620;BME280;24376;51.986;4.662;2022-11-06T06:25:55;107086.06;;;10.52;100.00
38620;BME280;24376;51.986;4.662;2022-11-06T06:28:20;107089.06;;;10.55;100.00
38620;BME280;24376;51.986;4.662;2022-11-06T06:30:45;107047.09;;;10.55;100.00
38620;BME280;24376;51.986;4.662;2022-11-06T06:33:11;107036.59;;;10.55;100.00
38620;BME280;24376;51.986;4.662;2022-11-06T06:35:36;107058.00;;;10.58;100.00
38620;BME280;24376;51.986;4.662;2022-11-06T06:38:01;107020.34;;;10.57;100.00
38620;BME280;24376;51.986;4.662;2022-11-06T06:40:26;106969.00;;;10.59;100.00
38620;BME280;24376;51.986;4.662;2022-11-06T06:42:57;106939.41;;;10.60;100.00
38620;BME280;24376;51.986;4.662;2022-11-06T06:45:23;106866.91;;;10.61;100.00
38620;BME280;24376;51.986;4.662;2022-11-06T06:47:48;106846.91;;;10.69;100.00
38620;BME280;24376;51.986;4.662;2022-11-06T06:50:13;106816.34;;;10.69;100.00
38620;BME280;24376;51.986;4.662;2022-11-06T06:52:38;106759.41;;;10.68;100.00
38620;BME280;24376;51.986;4.662;2022-11-06T06:55:04;106735.59;;;10.74;100.00
38620;BME280;24376;51.986;4.662;2022-11-06T06:57:30;106691.19;;;10.75;100.00
38620;BME280;24376;51.986;4.662;2022-11-06T06:59:55;106695.50;;;10.75;100.00
38620;BME280;24376;51.986;4.662;2022-11-06T07:02:20;106617.97;;;10.70;100.00
38620;BME280;24376;51.986;4.662;2022-11-06T07:04:45;106529.91;;;10.72;100.00
38620;BME280;24376;51.986;4.662;2022-11-06T07:07:10;106506.50;;;10.66;100.00
38620;BME280;24376;51.986;4.662;2022-11-06T07:09:35;106444.19;;;10.63;100.00
38620;BME280;24376;51.986;4.662;2022-11-06T07:12:01;106439.63;;;10.70;100.00
38620;BME280;24376;51.986;4.662;2022-11-06T07:14:26;106375.41;;;10.66;100.00
38620;BME280;24376;51.986;4.662;2022-11-06T07:16:51;106319.06;;;10.62;100.00
38620;BME280;24376;51.986;4.662;2022-11-06T07:19:16;106252.94;;;10.65;100.00
38620;BME280;24376;51.986;4.662;2022-11-06T07:21:41;106182.53;;;10.61;100.00
38620;BME280;24376;51.986;4.662;2022-11-06T07:24:07;106179.50;;;10.65;100.00
38620;BME280;24376;51.986;4.662;2022-11-06T07:26:32;106086.38;;;10.69;100.00
38620;BME280;24376;51.986;4.662;2022-11-06T07:28:57;106041.38;;;10.73;100.00
38620;BME280;24376;51.986;4.662;2022-11-06T07:31:22;105993.34;;;10.89;100.00
38620;BME280;24376;51.986;4.662;2022-11-06T07:33:47;105918.69;;;10.95;100.00
38620;BME280;24376;51.986;4.662;2022-11-06T07:36:13;105842.53;;;11.02;100.00
38620;BME280;24376;51.986;4.662;2022-11-06T07:38:39;105781.44;;;11.20;100.00
38620;BME280;24376;51.986;4.662;2022-11-06T07:41:05;105654.88;;;11.14;100.00
38620;BME280;24376;51.986;4.662;2022-11-06T07:43:31;105570.88;;;11.31;100.00
38620;BME280;24376;51.986;4.662;2022-11-06T07:45:57;105429.16;;;11.31;100.00
38620;BME280;24376;51.986;4.662;2022-11-06T07:48:23;105306.75;;;11.51;100.00
38620;BME280;24376;51.986;4.662;2022-11-06T07:50:48;105169.94;;;11.48;100.00
38620;BME280;24376;51.986;4.662;2022-11-06T07:53:13;105003.72;;;11.57;100.00
38620;BME280;24376;51.986;4.662;2022-11-06T07:55:39;104845.53;;;11.70;100.00
38620;BME280;24376;51.986;4.662;2022-11-06T07:58:04;104690.91;;;11.63;100.00
38620;BME280;24376;51.986;4.662;2022-11-06T08:00:29;104561.06;;;11.69;100.00
38620;BME280;24376;51.986;4.662;2022-11-06T08:02:54;104546.47;;;11.73;100.00
38620;BME280;24376;51.986;4.662;2022-11-06T08:05:20;104439.16;;;11.66;100.00
38620;BME280;24376;51.986;4.662;2022-11-06T08:07:45;104372.34;;;11.84;100.00
38620;BME280;24376;51.986;4.662;2022-11-06T08:10:11;104272.31;;;11.81;100.00
38620;BME280;24376;51.986;4.662;2022-11-06T08:12:36;104196.63;;;11.87;100.00
38620;BME280;24376;51.986;4.662;2022-11-06T08:15:01;104202.91;;;11.78;100.00
38620;BME280;24376;51.986;4.662;2022-11-06T08:17:26;104257.16;;;11.89;100.00
38620;BME280;24376;51.986;4.662;2022-11-06T08:19:53;104278.78;;;11.75;100.00
38620;BME280;24376;51.986;4.662;2022-11-06T08:22:19;104311.06;;;11.84;100.00
38620;BME280;24376;51.986;4.662;2022-11-06T08:24:44;104310.66;;;11.79;100.00
38620;BME280;24376;51.986;4.662;2022-11-06T08:27:09;104287.38;;;11.72;100.00
38620;BME280;24376;51.986;4.662;2022-11-06T08:29:34;104291.34;;;11.67;100.00
38620;BME280;24376;51.986;4.662;2022-11-06T08:31:59;104295.22;;;11.60;100.00
38620;BME280;24376;51.986;4.662;2022-11-06T08:34:24;104253.88;;;11.58;100.00
38620;BME280;24376;51.986;4.662;2022-11-06T08:36:50;104295.88;;;11.58;100.00
38620;BME280;24376;51.986;4.662;2022-11-06T08:39:16;104329.63;;;11.53;100.00
38620;BME280;24376;51.986;4.662;2022-11-06T08:41:41;104477.19;;;11.49;100.00
38620;BME280;24376;51.986;4.662;2022-11-06T08:44:06;104586.34;;;11.47;100.00
38620;BME280;24376;51.986;4.662;2022-11-06T08:46:32;104738.84;;;11.30;100.00
38620;BME280;24376;51.986;4.662;2022-11-06T08:48:57;104866.25;;;11.36;100.00
38620;BME280;24376;51.986;4.662;2022-11-06T08:51:22;104966.50;;;11.32;100.00
38620;BME280;24376;51.986;4.662;2022-11-06T08:53:48;105075.28;;;11.36;100.00
38620;BME280;24376;51.986;4.662;2022-11-06T08:56:13;105194.13;;;11.54;100.00
38620;BME280;24376;51.986;4.662;2022-11-06T08:58:38;105224.03;;;11.45;100.00
38620;BME280;24376;51.986;4.662;2022-11-06T09:01:03;105245.03;;;11.45;100.00
38620;BME280;24376;51.986;4.662;2022-11-06T09:03:29;105210.31;;;11.58;100.00
38620;BME280;24376;51.986;4.662;2022-11-06T09:05:54;105221.31;;;11.73;100.00
38620;BME280;24376;51.986;4.662;2022-11-06T09:08:19;105215.41;;;11.76;100.00
38620;BME280;24376;51.986;4.662;2022-11-06T09:10:44;105208.28;;;11.83;100.00
38620;BME280;24376;51.986;4.662;2022-11-06T09:13:10;105154.19;;;11.85;100.00
38620;BME280;24376;51.986;4.662;2022-11-06T09:15:35;105100.34;;;11.90;100.00
38620;BME280;24376;51.986;4.662;2022-11-06T09:18:00;104987.34;;;11.80;100.00
38620;BME280;24376;51.986;4.662;2022-11-06T09:20:26;104935.41;;;11.96;100.00
38620;BME280;24376;51.986;4.662;2022-11-06T09:22:51;104853.91;;;12.17;100.00
38620;BME280;24376;51.986;4.662;2022-11-06T09:25:16;104785.06;;;12.21;100.00
38620;BME280;24376;51.986;4.662;2022-11-06T09:27:43;104670.19;;;12.30;100.00
38620;BME280;24376;51.986;4.662;2022-11-06T09:30:08;104524.31;;;12.35;100.00
38620;BME280;24376;51.986;4.662;2022-11-06T09:32:34;104419.41;;;12.38;100.00
38620;BME280;24376;51.986;4.662;2022-11-06T09:34:59;104299.84;;;12.57;100.00
38620;BME280;24376;51.986;4.662;2022-11-06T09:37:25;104194.94;;;12.60;100.00
38620;BME280;24376;51.986;4.662;2022-11-06T09:39:50;104062.75;;;12.62;100.00
38620;BME280;24376;51.986;4.662;2022-11-06T09:45:15;103851.44;;;12.73;100.00
38620;BME280;24376;51.986;4.662;2022-11-06T09:47:42;103658.78;;;12.48;100.00
38620;BME280;24376;51.986;4.662;2022-11-06T09:50:13;103688.97;;;12.55;100.00
38620;BME280;24376;51.986;4.662;2022-11-06T09:52:47;103706.78;;;12.59;100.00
38620;BME280;24376;51.986;4.662;2022-11-06T09:55:21;103677.88;;;12.59;100.00
38620;BME280;24376;51.986;4.662;2022-11-06T09:57:50;103646.97;;;12.69;100.00
38620;BME280;24376;51.986;4.662;2022-11-06T10:00:17;103628.09;;;12.62;100.00
38620;BME280;24376;51.986;4.662;2022-11-06T10:02:49;103615.16;;;12.65;100.00
38620;BME280;24376;51.986;4.662;2022-11-06T10:05:34;103614.47;;;12.54;100.00
38620;BME280;24376;51.986;4.662;2022-11-06T10:08:16;103598.22;;;12.46;100.00
38620;BME280;24376;51.986;4.662;2022-11-06T10:13:43;103569.81;;;12.69;100.00
38620;BME280;24376;51.986;4.662;2022-11-06T10:21:23;103476.63;;;13.08;100.00
38620;BME280;24376;51.986;4.662;2022-11-06T10:26:18;103237.16;;;13.39;100.00
38620;BME280;24376;51.986;4.662;2022-11-06T10:33:59;102869.19;;;13.48;100.00
38620;BME280;24376;51.986;4.662;2022-11-06T10:38:54;102668.75;;;13.39;100.00
38620;BME280;24376;51.986;4.662;2022-11-06T10:41:22;102600.22;;;13.36;100.00
38620;BME280;24376;51.986;4.662;2022-11-06T10:44:05;102497.47;;;13.33;100.00
38620;BME280;24376;51.986;4.662;2022-11-06T10:46:36;102442.22;;;13.33;100.00
38620;BME280;24376;51.986;4.662;2022-11-06T10:49:14;102432.31;;;13.48;100.00
38620;BME280;24376;51.986;4.662;2022-11-06T10:51:54;102412.16;;;13.49;100.00
38620;BME280;24376;51.986;4.662;2022-11-06T10:54:30;102394.34;;;13.42;100.00
38620;BME280;24376;51.986;4.662;2022-11-06T10:57:11;102363.06;;;13.49;100.00
38620;BME280;24376;51.986;4.662;2022-11-06T10:59:39;102372.81;;;13.29;100.00
38620;BME280;24376;51.986;4.662;2022-11-06T11:02:08;102384.69;;;13.20;100.00
38620;BME280;24376;51.986;4.662;2022-11-06T11:04:40;102434.09;;;13.06;100.00
38620;BME280;24376;51.986;4.662;2022-11-06T11:07:10;102512.66;;;12.98;100.00
38620;BME280;24376;51.986;4.662;2022-11-06T11:09:37;102616.66;;;12.92;100.00
38620;BME280;24376;51.986;4.662;2022-11-06T11:12:02;102736.59;;;12.88;100.00
38620;BME280;24376;51.986;4.662;2022-11-06T11:14:28;102965.66;;;12.60;100.00
38620;BME280;24376;51.986;4.662;2022-11-06T11:16:54;103196.91;;;12.44;100.00
38620;BME280;24376;51.986;4.662;2022-11-06T11:19:38;103510.72;;;12.47;100.00
38620;BME280;24376;51.986;4.662;2022-11-06T11:24:57;103997.41;;;12.42;100.00
38620;BME280;24376;51.986;4.662;2022-11-06T11:27:22;104164.22;;;12.47;100.00
38620;BME280;24376;51.986;4.662;2022-11-06T11:29:48;104321.34;;;12.39;100.00
38620;BME280;24376;51.986;4.662;2022-11-06T11:32:15;104655.44;;;12.10;100.00
38620;BME280;24376;51.986;4.662;2022-11-06T11:34:45;104851.84;;;12.13;100.00
38620;BME280;24376;51.986;4.662;2022-11-06T11:37:25;104932.25;;;12.01;100.00
38620;BME280;24376;51.986;4.662;2022-11-06T11:39:51;104991.09;;;12.03;100.00
38620;BME280;24376;51.986;4.662;2022-11-06T11:42:27;105021.94;;;12.05;100.00
38620;BME280;24376;51.986;4.662;2022-11-06T11:47:50;105024.47;;;12.14;100.00
38620;BME280;24376;51.986;4.662;2022-11-06T11:50:16;105044.16;;;12.09;100.00
38620;BME280;24376;51.986;4.662;2022-11-06T11:52:43;105055.59;;;12.09;100.00
38620;BME280;24376;51.986;4.662;2022-11-06T11:55:16;105075.69;;;12.09;100.00
38620;BME280;24376;51.986;4.662;2022-11-06T11:57:44;105109.19;;;12.01;100.00
38620;BME280;24376;51.986;4.662;2022-11-06T12:00:16;105177.88;;;11.95;100.00
38620;BME280;24376;51.986;4.662;2022-11-06T12:02:42;105202.41;;;11.96;100.00
38620;BME280;24376;51.986;4.662;2022-11-06T12:05:12;105234.53;;;11.83;100.00
38620;BME280;24376;51.986;4.662;2022-11-06T12:07:40;105303.09;;;11.86;100.00
38620;BME280;24376;51.986;4.662;2022-11-06T12:10:18;105295.72;;;11.82;100.00
38620;BME280;24376;51.986;4.662;2022-11-06T12:12:47;105290.63;;;11.84;100.00
38620;BME280;24376;51.986;4.662;2022-11-06T12:15:16;105295.28;;;11.78;100.00
38620;BME280;24376;51.986;4.662;2022-11-06T12:17:43;105295.28;;;11.78;100.00
38620;BME280;24376;51.986;4.662;2022-11-06T12:20:13;105217.59;;;11.71;100.00
38620;BME280;24376;51.986;4.662;2022-11-06T12:22:40;105154.88;;;11.74;100.00
38620;BME280;24376;51.986;4.662;2022-11-06T12:25:09;105125.41;;;11.87;100.00
38620;BME280;24376;51.986;4.662;2022-11-06T12:27:37;105097.75;;;12.01;100.00
38620;BME280;24376;51.986;4.662;2022-11-06T12:30:06;105085.66;;;12.03;100.00
38620;BME280;24376;51.986;4.662;2022-11-06T12:32:43;105050.19;;;11.97;100.00
38620;BME280;24376;51.986;4.662;2022-11-06T12:40:20;105252.13;;;11.84;100.00
38620;BME280;24376;51.986;4.662;2022-11-06T12:42:55;105264.31;;;11.65;100.00
38620;BME280;24376;51.986;4.662;2022-11-06T12:45:21;105183.59;;;11.43;100.00
38620;BME280;24376;51.986;4.662;2022-11-06T12:47:55;105292.06;;;11.53;100.00
38620;BME280;24376;51.986;4.662;2022-11-06T12:50:26;105295.31;;;11.69;100.00
38620;BME280;24376;51.986;4.662;2022-11-06T12:58:41;105163.16;;;11.50;100.00
38620;BME280;24376;51.986;4.662;2022-11-06T13:09:42;105272.53;;;11.40;100.00
38620;BME280;24376;51.986;4.662;2022-11-06T13:12:19;105280.63;;;11.33;100.00
38620;BME280;24376;51.986;4.662;2022-11-06T13:17:23;105360.28;;;11.34;100.00
38620;BME280;24376;51.986;4.662;2022-11-06T13:22:39;105412.50;;;11.31;100.00
38620;BME280;24376;51.986;4.662;2022-11-06T13:25:16;105437.69;;;11.20;100.00
38620;BME280;24376;51.986;4.662;2022-11-06T13:27:55;105491.75;;;11.09;100.00
38620;BME280;24376;51.986;4.662;2022-11-06T13:30:22;105567.69;;;11.08;100.00
38620;BME280;24376;51.986;4.662;2022-11-06T13:32:58;105537.25;;;11.10;100.00
38620;BME280;24376;51.986;4.662;2022-11-06T13:35:25;105565.81;;;11.07;100.00
38620;BME280;24376;51.986;4.662;2022-11-06T13:37:51;105700.38;;;11.06;100.00
38620;BME280;24376;51.986;4.662;2022-11-06T13:42:51;105675.53;;;10.93;100.00
38620;BME280;24376;51.986;4.662;2022-11-06T13:45:17;105799.16;;;10.97;100.00
38620;BME280;24376;51.986;4.662;2022-11-06T13:50:40;105840.94;;;10.95;100.00
38620;BME280;24376;51.986;4.662;2022-11-06T13:55:56;105933.34;;;10.92;100.00
38620;BME280;24376;51.986;4.662;2022-11-06T14:01:11;106031.88;;;10.82;100.00